sensor_id;sensor_type;location;lat;lon;timestamp;P1;durP1;ratioP1;P2;durP2;ratioP2
45522;SDS011;31254;51.680;5.394;2024-02-14T00:01:18;7.57;;;3.28;;
45522;SDS011;31254;51.680;5.394;2024-02-14T00:03:45;6.35;;;3.50;;
45522;SDS011;31254;51.680;5.394;2024-02-14T00:06:11;6.65;;;3.90;;
45522;SDS011;31254;51.680;5.394;2024-02-14T00:08:39;5.40;;;3.13;;
45522;SDS011;31254;51.680;5.394;2024-02-14T00:11:06;5.05;;;3.38;;
45522;SDS011;31254;51.680;5.394;2024-02-14T00:13:33;4.68;;;3.35;;
45522;SDS011;31254;51.680;5.394;2024-02-14T00:16:01;4.65;;;3.28;;
45522;SDS011;31254;51.680;5.394;2024-02-14T00:18:28;4.68;;;3.58;;
45522;SDS011;31254;51.680;5.394;2024-02-14T00:20:55;5.88;;;3.60;;
45522;SDS011;31254;51.680;5.394;2024-02-14T00:23:22;4.70;;;2.92;;
45522;SDS011;31254;51.680;5.394;2024-02-14T00:25:48;4.55;;;3.22;;
45522;SDS011;31254;51.680;5.394;2024-02-14T00:28:15;5.05;;;2.95;;
45522;SDS011;31254;51.680;5.394;2024-02-14T00:30:42;7.05;;;3.30;;
45522;SDS011;31254;51.680;5.394;2024-02-14T00:33:08;5.07;;;3.70;;
45522;SDS011;31254;51.680;5.394;2024-02-14T00:35:35;4.93;;;3.15;;
45522;SDS011;31254;51.680;5.394;2024-02-14T00:38:02;4.90;;;3.60;;
45522;SDS011;31254;51.680;5.394;2024-02-14T00:40:28;4.60;;;3.58;;
45522;SDS011;31254;51.680;5.394;2024-02-14T00:42:55;4.93;;;3.25;;
45522;SDS011;31254;51.680;5.394;2024-02-14T00:45:21;7.85;;;3.38;;
45522;SDS011;31254;51.680;5.394;2024-02-14T00:47:48;5.22;;;3.92;;
45522;SDS011;31254;51.680;5.394;2024-02-14T00:50:15;5.35;;;4.05;;
45522;SDS011;31254;51.680;5.394;2024-02-14T00:52:41;6.85;;;3.70;;
45522;SDS011;31254;51.680;5.394;2024-02-14T00:55:09;5.80;;;3.80;;
45522;SDS011;31254;51.680;5.394;2024-02-14T00:57:35;5.00;;;3.60;;
45522;SDS011;31254;51.680;5.394;2024-02-14T01:00:02;5.40;;;3.80;;
45522;SDS011;31254;51.680;5.394;2024-02-14T01:02:30;4.63;;;3.60;;
45522;SDS011;31254;51.680;5.394;2024-02-14T01:04:57;6.15;;;3.50;;
45522;SDS011;31254;51.680;5.394;2024-02-14T01:07:23;5.65;;;3.70;;
45522;SDS011;31254;51.680;5.394;2024-02-14T01:09:50;5.90;;;3.63;;
45522;SDS011;31254;51.680;5.394;2024-02-14T01:12:16;5.88;;;4.05;;
45522;SDS011;31254;51.680;5.394;2024-02-14T01:14:43;5.18;;;3.70;;
45522;SDS011;31254;51.680;5.394;2024-02-14T01:17:09;6.63;;;3.78;;
45522;SDS011;31254;51.680;5.394;2024-02-14T01:19:36;5.18;;;3.80;;
45522;SDS011;31254;51.680;5.394;2024-02-14T01:22:03;6.65;;;4.13;;
45522;SDS011;31254;51.680;5.394;2024-02-14T01:24:29;6.35;;;4.10;;
45522;SDS011;31254;51.680;5.394;2024-02-14T01:26:56;5.30;;;3.58;;
45522;SDS011;31254;51.680;5.394;2024-02-14T01:29:23;6.25;;;4.20;;
45522;SDS011;31254;51.680;5.394;2024-02-14T01:31:49;5.88;;;4.15;;
45522;SDS011;31254;51.680;5.394;2024-02-14T01:34:16;6.10;;;4.55;;
45522;SDS011;31254;51.680;5.394;2024-02-14T01:36:43;6.75;;;4.35;;
45522;SDS011;31254;51.680;5.394;2024-02-14T01:39:09;5.50;;;3.80;;
45522;SDS011;31254;51.680;5.394;2024-02-14T01:41:37;6.60;;;4.03;;
45522;SDS011;31254;51.680;5.394;2024-02-14T01:44:04;7.13;;;4.65;;
45522;SDS011;31254;51.680;5.394;2024-02-14T01:46:31;6.35;;;4.30;;
45522;SDS011;31254;51.680;5.394;2024-02-14T01:48:57;8.05;;;4.13;;
45522;SDS011;31254;51.680;5.394;2024-02-14T01:51:24;5.82;;;4.47;;
45522;SDS011;31254;51.680;5.394;2024-02-14T01:53:52;5.20;;;4.10;;
45522;SDS011;31254;51.680;5.394;2024-02-14T01:56:21;6.57;;;4.68;;
45522;SDS011;31254;51.680;5.394;2024-02-14T01:58:48;6.40;;;4.55;;
45522;SDS011;31254;51.680;5.394;2024-02-14T02:01:15;8.40;;;5.05;;
45522;SDS011;31254;51.680;5.394;2024-02-14T02:03:44;6.53;;;4.32;;
45522;SDS011;31254;51.680;5.394;2024-02-14T02:06:10;6.75;;;4.43;;
45522;SDS011;31254;51.680;5.394;2024-02-14T02:08:37;8.88;;;4.80;;
45522;SDS011;31254;51.680;5.394;2024-02-14T02:11:04;8.55;;;4.78;;
45522;SDS011;31254;51.680;5.394;2024-02-14T02:13:31;8.80;;;4.45;;
45522;SDS011;31254;51.680;5.394;2024-02-14T02:15:58;7.45;;;4.53;;
45522;SDS011;31254;51.680;5.394;2024-02-14T02:18:24;5.63;;;4.10;;
45522;SDS011;31254;51.680;5.394;2024-02-14T02:20:53;7.30;;;4.95;;
45522;SDS011;31254;51.680;5.394;2024-02-14T02:23:20;8.13;;;4.55;;
45522;SDS011;31254;51.680;5.394;2024-02-14T02:25:48;7.35;;;5.10;;
45522;SDS011;31254;51.680;5.394;2024-02-14T02:28:14;10.68;;;4.47;;
45522;SDS011;31254;51.680;5.394;2024-02-14T02:30:41;7.25;;;4.75;;
45522;SDS011;31254;51.680;5.394;2024-02-14T02:33:07;6.38;;;4.85;;
45522;SDS011;31254;51.680;5.394;2024-02-14T02:35:34;5.82;;;4.85;;
45522;SDS011;31254;51.680;5.394;2024-02-14T02:38:01;6.30;;;4.38;;
45522;SDS011;31254;51.680;5.394;2024-02-14T02:40:28;7.18;;;4.88;;
45522;SDS011;31254;51.680;5.394;2024-02-14T02:42:54;6.47;;;5.00;;
45522;SDS011;31254;51.680;5.394;2024-02-14T02:45:21;7.00;;;4.28;;
45522;SDS011;31254;51.680;5.394;2024-02-14T02:47:48;8.35;;;5.28;;
45522;SDS011;31254;51.680;5.394;2024-02-14T02:50:18;6.82;;;4.75;;
45522;SDS011;31254;51.680;5.394;2024-02-14T02:52:45;7.47;;;4.53;;
45522;SDS011;31254;51.680;5.394;2024-02-14T02:55:12;5.88;;;4.43;;
45522;SDS011;31254;51.680;5.394;2024-02-14T02:57:40;9.50;;;4.72;;
45522;SDS011;31254;51.680;5.394;2024-02-14T03:00:07;11.85;;;5.10;;
45522;SDS011;31254;51.680;5.394;2024-02-14T03:02:35;5.90;;;4.68;;
45522;SDS011;31254;51.680;5.394;2024-02-14T03:05:04;5.72;;;4.85;;
45522;SDS011;31254;51.680;5.394;2024-02-14T03:07:36;7.47;;;5.20;;
45522;SDS011;31254;51.680;5.394;2024-02-14T03:10:04;7.50;;;4.95;;
45522;SDS011;31254;51.680;5.394;2024-02-14T03:12:31;9.73;;;5.32;;
45522;SDS011;31254;51.680;5.394;2024-02-14T03:15:03;8.27;;;5.50;;
45522;SDS011;31254;51.680;5.394;2024-02-14T03:17:31;10.60;;;5.40;;
45522;SDS011;31254;51.680;5.394;2024-02-14T03:19:58;6.43;;;4.80;;
45522;SDS011;31254;51.680;5.394;2024-02-14T03:22:25;8.18;;;5.32;;
45522;SDS011;31254;51.680;5.394;2024-02-14T03:24:51;7.38;;;5.25;;
45522;SDS011;31254;51.680;5.394;2024-02-14T03:27:18;9.32;;;4.95;;
45522;SDS011;31254;51.680;5.394;2024-02-14T03:29:45;8.10;;;5.20;;
45522;SDS011;31254;51.680;5.394;2024-02-14T03:32:14;9.05;;;4.82;;
45522;SDS011;31254;51.680;5.394;2024-02-14T03:34:40;7.28;;;5.10;;
45522;SDS011;31254;51.680;5.394;2024-02-14T03:37:07;7.82;;;5.47;;
45522;SDS011;31254;51.680;5.394;2024-02-14T03:39:33;7.22;;;5.00;;
45522;SDS011;31254;51.680;5.394;2024-02-14T03:42:00;8.05;;;5.78;;
45522;SDS011;31254;51.680;5.394;2024-02-14T03:44:29;9.75;;;5.30;;
45522;SDS011;31254;51.680;5.394;2024-02-14T03:46:58;9.07;;;6.18;;
45522;SDS011;31254;51.680;5.394;2024-02-14T03:49:25;7.72;;;5.65;;
45522;SDS011;31254;51.680;5.394;2024-02-14T03:51:52;6.75;;;5.15;;
45522;SDS011;31254;51.680;5.394;2024-02-14T03:54:21;7.35;;;5.80;;
45522;SDS011;31254;51.680;5.394;2024-02-14T03:56:47;10.02;;;5.28;;
45522;SDS011;31254;51.680;5.394;2024-02-14T03:59:14;9.18;;;6.63;;
45522;SDS011;31254;51.680;5.394;2024-02-14T04:01:44;9.18;;;6.25;;
45522;SDS011;31254;51.680;5.394;2024-02-14T04:04:14;8.52;;;5.75;;
45522;SDS011;31254;51.680;5.394;2024-02-14T04:06:41;8.82;;;5.72;;
45522;SDS011;31254;51.680;5.394;2024-02-14T04:09:08;8.15;;;5.97;;
45522;SDS011;31254;51.680;5.394;2024-02-14T04:11:35;8.00;;;5.82;;
45522;SDS011;31254;51.680;5.394;2024-02-14T04:14:02;7.38;;;5.68;;
45522;SDS011;31254;51.680;5.394;2024-02-14T04:16:29;7.55;;;5.60;;
45522;SDS011;31254;51.680;5.394;2024-02-14T04:18:55;8.95;;;5.90;;
45522;SDS011;31254;51.680;5.394;2024-02-14T04:21:22;7.97;;;6.15;;
45522;SDS011;31254;51.680;5.394;2024-02-14T04:23:49;10.32;;;6.00;;
45522;SDS011;31254;51.680;5.394;2024-02-14T04:26:19;8.07;;;5.85;;
45522;SDS011;31254;51.680;5.394;2024-02-14T04:28:46;9.70;;;6.05;;
45522;SDS011;31254;51.680;5.394;2024-02-14T04:31:13;8.60;;;6.07;;
45522;SDS011;31254;51.680;5.394;2024-02-14T04:33:39;9.10;;;6.20;;
45522;SDS011;31254;51.680;5.394;2024-02-14T04:36:06;8.95;;;5.75;;
45522;SDS011;31254;51.680;5.394;2024-02-14T04:38:33;9.30;;;6.18;;
45522;SDS011;31254;51.680;5.394;2024-02-14T04:41:00;10.32;;;6.13;;
45522;SDS011;31254;51.680;5.394;2024-02-14T04:43:26;9.30;;;6.40;;
45522;SDS011;31254;51.680;5.394;2024-02-14T04:45:53;9.07;;;5.82;;
45522;SDS011;31254;51.680;5.394;2024-02-14T04:48:19;9.73;;;6.53;;
45522;SDS011;31254;51.680;5.394;2024-02-14T04:50:46;8.90;;;6.20;;
45522;SDS011;31254;51.680;5.394;2024-02-14T04:53:13;9.18;;;6.15;;
45522;SDS011;31254;51.680;5.394;2024-02-14T04:55:39;10.75;;;6.22;;
45522;SDS011;31254;51.680;5.394;2024-02-14T04:58:06;9.82;;;6.60;;
45522;SDS011;31254;51.680;5.394;2024-02-14T05:00:32;7.65;;;6.05;;
45522;SDS011;31254;51.680;5.394;2024-02-14T05:02:59;11.23;;;6.05;;
45522;SDS011;31254;51.680;5.394;2024-02-14T05:05:26;13.13;;;6.10;;
45522;SDS011;31254;51.680;5.394;2024-02-14T05:07:52;9.38;;;6.43;;
45522;SDS011;31254;51.680;5.394;2024-02-14T05:10:19;11.30;;;6.57;;
45522;SDS011;31254;51.680;5.394;2024-02-14T05:12:46;12.10;;;6.90;;
45522;SDS011;31254;51.680;5.394;2024-02-14T05:15:12;10.57;;;7.15;;
45522;SDS011;31254;51.680;5.394;2024-02-14T05:17:42;10.25;;;6.82;;
45522;SDS011;31254;51.680;5.394;2024-02-14T05:20:09;9.68;;;6.07;;
45522;SDS011;31254;51.680;5.394;2024-02-14T05:22:36;8.20;;;6.00;;
45522;SDS011;31254;51.680;5.394;2024-02-14T05:25:06;9.27;;;6.53;;
45522;SDS011;31254;51.680;5.394;2024-02-14T05:27:36;7.63;;;6.50;;
45522;SDS011;31254;51.680;5.394;2024-02-14T05:30:03;8.30;;;6.88;;
45522;SDS011;31254;51.680;5.394;2024-02-14T05:32:37;8.93;;;7.13;;
45522;SDS011;31254;51.680;5.394;2024-02-14T05:35:04;8.68;;;6.68;;
45522;SDS011;31254;51.680;5.394;2024-02-14T05:37:32;8.40;;;6.43;;
45522;SDS011;31254;51.680;5.394;2024-02-14T05:40:04;8.73;;;6.85;;
45522;SDS011;31254;51.680;5.394;2024-02-14T05:42:33;10.60;;;7.68;;
45522;SDS011;31254;51.680;5.394;2024-02-14T05:45:00;8.10;;;6.90;;
45522;SDS011;31254;51.680;5.394;2024-02-14T05:47:29;8.85;;;6.30;;
45522;SDS011;31254;51.680;5.394;2024-02-14T05:49:56;10.63;;;7.68;;
45522;SDS011;31254;51.680;5.394;2024-02-14T05:52:22;8.82;;;6.63;;
45522;SDS011;31254;51.680;5.394;2024-02-14T05:54:49;11.38;;;7.30;;
45522;SDS011;31254;51.680;5.394;2024-02-14T05:57:16;9.80;;;7.53;;
45522;SDS011;31254;51.680;5.394;2024-02-14T05:59:42;10.73;;;6.57;;
45522;SDS011;31254;51.680;5.394;2024-02-14T06:02:09;9.88;;;6.75;;
45522;SDS011;31254;51.680;5.394;2024-02-14T06:04:36;9.95;;;6.60;;
45522;SDS011;31254;51.680;5.394;2024-02-14T06:07:02;11.32;;;7.90;;
45522;SDS011;31254;51.680;5.394;2024-02-14T06:09:32;9.65;;;6.85;;
45522;SDS011;31254;51.680;5.394;2024-02-14T06:11:58;8.43;;;7.20;;
45522;SDS011;31254;51.680;5.394;2024-02-14T06:14:25;9.90;;;7.85;;
45522;SDS011;31254;51.680;5.394;2024-02-14T06:16:52;9.85;;;7.30;;
45522;SDS011;31254;51.680;5.394;2024-02-14T06:19:18;11.48;;;7.13;;
45522;SDS011;31254;51.680;5.394;2024-02-14T06:21:45;9.77;;;7.65;;
45522;SDS011;31254;51.680;5.394;2024-02-14T06:24:11;11.02;;;7.32;;
45522;SDS011;31254;51.680;5.394;2024-02-14T06:26:40;8.13;;;6.40;;
45522;SDS011;31254;51.680;5.394;2024-02-14T06:29:07;9.10;;;7.15;;
45522;SDS011;31254;51.680;5.394;2024-02-14T06:31:33;9.68;;;7.65;;
45522;SDS011;31254;51.680;5.394;2024-02-14T06:34:00;11.73;;;7.55;;
45522;SDS011;31254;51.680;5.394;2024-02-14T06:36:27;8.85;;;7.72;;
45522;SDS011;31254;51.680;5.394;2024-02-14T06:38:54;9.88;;;7.45;;
45522;SDS011;31254;51.680;5.394;2024-02-14T06:41:20;9.90;;;8.13;;
45522;SDS011;31254;51.680;5.394;2024-02-14T06:43:47;9.68;;;7.90;;
45522;SDS011;31254;51.680;5.394;2024-02-14T06:46:14;9.15;;;7.88;;
45522;SDS011;31254;51.680;5.394;2024-02-14T06:48:40;10.30;;;7.85;;
45522;SDS011;31254;51.680;5.394;2024-02-14T06:51:07;8.57;;;7.32;;
45522;SDS011;31254;51.680;5.394;2024-02-14T06:53:34;10.00;;;7.65;;
45522;SDS011;31254;51.680;5.394;2024-02-14T06:56:02;13.38;;;8.05;;
45522;SDS011;31254;51.680;5.394;2024-02-14T06:58:28;8.98;;;7.57;;
45522;SDS011;31254;51.680;5.394;2024-02-14T07:00:56;11.43;;;8.10;;
45522;SDS011;31254;51.680;5.394;2024-02-14T07:03:23;10.18;;;7.80;;
45522;SDS011;31254;51.680;5.394;2024-02-14T07:05:50;9.27;;;7.50;;
45522;SDS011;31254;51.680;5.394;2024-02-14T07:08:18;10.07;;;7.60;;
45522;SDS011;31254;51.680;5.394;2024-02-14T07:10:45;12.52;;;8.68;;
45522;SDS011;31254;51.680;5.394;2024-02-14T07:13:11;11.98;;;8.02;;
45522;SDS011;31254;51.680;5.394;2024-02-14T07:15:38;10.40;;;8.55;;
45522;SDS011;31254;51.680;5.394;2024-02-14T07:18:05;10.57;;;8.07;;
45522;SDS011;31254;51.680;5.394;2024-02-14T07:20:34;11.07;;;7.65;;
45522;SDS011;31254;51.680;5.394;2024-02-14T07:23:01;12.68;;;7.88;;
45522;SDS011;31254;51.680;5.394;2024-02-14T07:25:28;10.45;;;8.30;;
45522;SDS011;31254;51.680;5.394;2024-02-14T07:27:54;12.27;;;7.95;;
45522;SDS011;31254;51.680;5.394;2024-02-14T07:30:21;9.82;;;7.93;;
45522;SDS011;31254;51.680;5.394;2024-02-14T07:32:47;11.32;;;8.75;;
45522;SDS011;31254;51.680;5.394;2024-02-14T07:35:14;10.35;;;8.40;;
45522;SDS011;31254;51.680;5.394;2024-02-14T07:37:41;9.55;;;8.50;;
45522;SDS011;31254;51.680;5.394;2024-02-14T07:40:09;11.40;;;8.98;;
45522;SDS011;31254;51.680;5.394;2024-02-14T07:42:36;12.95;;;8.30;;
45522;SDS011;31254;51.680;5.394;2024-02-14T07:45:03;12.15;;;8.18;;
45522;SDS011;31254;51.680;5.394;2024-02-14T07:47:30;10.88;;;8.00;;
45522;SDS011;31254;51.680;5.394;2024-02-14T07:49:57;12.18;;;8.77;;
45522;SDS011;31254;51.680;5.394;2024-02-14T07:52:25;10.30;;;8.68;;
45522;SDS011;31254;51.680;5.394;2024-02-14T07:54:52;14.25;;;8.65;;
45522;SDS011;31254;51.680;5.394;2024-02-14T07:57:22;10.52;;;8.02;;
45522;SDS011;31254;51.680;5.394;2024-02-14T07:59:50;14.45;;;9.30;;
45522;SDS011;31254;51.680;5.394;2024-02-14T08:02:18;14.98;;;8.88;;
45522;SDS011;31254;51.680;5.394;2024-02-14T08:04:46;12.07;;;8.70;;
45522;SDS011;31254;51.680;5.394;2024-02-14T08:07:14;12.55;;;8.85;;
45522;SDS011;31254;51.680;5.394;2024-02-14T08:09:40;11.45;;;8.43;;
45522;SDS011;31254;51.680;5.394;2024-02-14T08:12:07;13.23;;;9.07;;
45522;SDS011;31254;51.680;5.394;2024-02-14T08:14:33;13.25;;;8.95;;
45522;SDS011;31254;51.680;5.394;2024-02-14T08:17:00;10.82;;;8.50;;
45522;SDS011;31254;51.680;5.394;2024-02-14T08:19:27;13.07;;;9.10;;
45522;SDS011;31254;51.680;5.394;2024-02-14T08:21:53;14.93;;;8.10;;
45522;SDS011;31254;51.680;5.394;2024-02-14T08:24:27;13.65;;;9.10;;
45522;SDS011;31254;51.680;5.394;2024-02-14T08:26:54;11.70;;;8.73;;
45522;SDS011;31254;51.680;5.394;2024-02-14T08:29:21;12.40;;;8.98;;
45522;SDS011;31254;51.680;5.394;2024-02-14T08:31:48;13.45;;;8.52;;
45522;SDS011;31254;51.680;5.394;2024-02-14T08:34:14;11.75;;;8.23;;
45522;SDS011;31254;51.680;5.394;2024-02-14T08:36:42;12.32;;;8.93;;
45522;SDS011;31254;51.680;5.394;2024-02-14T08:39:09;10.98;;;8.35;;
45522;SDS011;31254;51.680;5.394;2024-02-14T08:41:37;13.75;;;8.82;;
45522;SDS011;31254;51.680;5.394;2024-02-14T08:44:04;11.18;;;8.55;;
45522;SDS011;31254;51.680;5.394;2024-02-14T08:46:31;13.88;;;8.80;;
45522;SDS011;31254;51.680;5.394;2024-02-14T08:48:59;14.55;;;8.75;;
45522;SDS011;31254;51.680;5.394;2024-02-14T08:51:28;12.25;;;8.73;;
45522;SDS011;31254;51.680;5.394;2024-02-14T08:53:55;12.25;;;9.27;;
45522;SDS011;31254;51.680;5.394;2024-02-14T08:56:25;13.57;;;8.98;;
45522;SDS011;31254;51.680;5.394;2024-02-14T08:58:51;14.80;;;8.80;;
45522;SDS011;31254;51.680;5.394;2024-02-14T09:01:18;13.50;;;8.80;;
45522;SDS011;31254;51.680;5.394;2024-02-14T09:03:46;10.48;;;8.35;;
45522;SDS011;31254;51.680;5.394;2024-02-14T09:06:16;12.40;;;8.63;;
45522;SDS011;31254;51.680;5.394;2024-02-14T09:08:46;10.70;;;8.07;;
45522;SDS011;31254;51.680;5.394;2024-02-14T09:11:13;11.70;;;8.15;;
45522;SDS011;31254;51.680;5.394;2024-02-14T09:13:40;17.70;;;8.60;;
45522;SDS011;31254;51.680;5.394;2024-02-14T09:16:10;18.38;;;8.95;;
45522;SDS011;31254;51.680;5.394;2024-02-14T09:18:37;18.73;;;8.63;;
45522;SDS011;31254;51.680;5.394;2024-02-14T09:21:05;15.38;;;8.73;;
45522;SDS011;31254;51.680;5.394;2024-02-14T09:23:32;14.60;;;8.90;;
45522;SDS011;31254;51.680;5.394;2024-02-14T09:26:00;16.88;;;8.38;;
45522;SDS011;31254;51.680;5.394;2024-02-14T09:28:27;14.32;;;8.18;;
45522;SDS011;31254;51.680;5.394;2024-02-14T09:30:54;15.25;;;7.82;;
45522;SDS011;31254;51.680;5.394;2024-02-14T09:33:23;13.40;;;7.95;;
45522;SDS011;31254;51.680;5.394;2024-02-14T09:35:51;14.70;;;7.65;;
45522;SDS011;31254;51.680;5.394;2024-02-14T09:38:19;16.98;;;8.38;;
45522;SDS011;31254;51.680;5.394;2024-02-14T09:40:46;13.38;;;7.80;;
45522;SDS011;31254;51.680;5.394;2024-02-14T09:43:17;12.30;;;7.97;;
45522;SDS011;31254;51.680;5.394;2024-02-14T09:45:48;15.55;;;7.90;;
45522;SDS011;31254;51.680;5.394;2024-02-14T09:48:17;14.30;;;7.97;;
45522;SDS011;31254;51.680;5.394;2024-02-14T09:50:47;13.85;;;7.78;;
45522;SDS011;31254;51.680;5.394;2024-02-14T09:53:15;19.42;;;8.55;;
45522;SDS011;31254;51.680;5.394;2024-02-14T09:55:43;13.60;;;8.18;;
45522;SDS011;31254;51.680;5.394;2024-02-14T09:58:12;14.05;;;8.23;;
45522;SDS011;31254;51.680;5.394;2024-02-14T10:00:39;14.77;;;7.93;;
45522;SDS011;31254;51.680;5.394;2024-02-14T10:03:07;17.60;;;8.52;;
45522;SDS011;31254;51.680;5.394;2024-02-14T10:05:35;20.20;;;8.30;;
45522;SDS011;31254;51.680;5.394;2024-02-14T10:08:01;17.17;;;8.35;;
45522;SDS011;31254;51.680;5.394;2024-02-14T10:10:31;17.63;;;8.38;;
45522;SDS011;31254;51.680;5.394;2024-02-14T10:12:58;14.23;;;8.38;;
45522;SDS011;31254;51.680;5.394;2024-02-14T10:15:25;19.45;;;8.35;;
45522;SDS011;31254;51.680;5.394;2024-02-14T10:17:52;14.93;;;8.15;;
45522;SDS011;31254;51.680;5.394;2024-02-14T10:20:20;13.27;;;7.85;;
45522;SDS011;31254;51.680;5.394;2024-02-14T10:22:47;12.35;;;7.63;;
45522;SDS011;31254;51.680;5.394;2024-02-14T10:25:14;29.30;;;10.13;;
45522;SDS011;31254;51.680;5.394;2024-02-14T10:27:41;22.88;;;8.38;;
45522;SDS011;31254;51.680;5.394;2024-02-14T10:30:08;14.38;;;8.10;;
45522;SDS011;31254;51.680;5.394;2024-02-14T10:32:39;21.05;;;8.18;;
45522;SDS011;31254;51.680;5.394;2024-02-14T10:35:07;12.65;;;7.25;;
45522;SDS011;31254;51.680;5.394;2024-02-14T10:37:35;15.88;;;8.13;;
45522;SDS011;31254;51.680;5.394;2024-02-14T10:40:02;12.02;;;8.00;;
45522;SDS011;31254;51.680;5.394;2024-02-14T10:42:30;12.75;;;7.45;;
45522;SDS011;31254;51.680;5.394;2024-02-14T10:44:57;13.60;;;7.13;;
45522;SDS011;31254;51.680;5.394;2024-02-14T10:47:25;14.40;;;7.75;;
45522;SDS011;31254;51.680;5.394;2024-02-14T10:49:57;14.10;;;7.30;;
45522;SDS011;31254;51.680;5.394;2024-02-14T10:52:31;15.60;;;9.05;;
45522;SDS011;31254;51.680;5.394;2024-02-14T10:55:02;14.68;;;7.88;;
45522;SDS011;31254;51.680;5.394;2024-02-14T10:57:30;11.15;;;7.28;;
45522;SDS011;31254;51.680;5.394;2024-02-14T10:59:59;13.70;;;7.47;;
45522;SDS011;31254;51.680;5.394;2024-02-14T11:02:29;11.55;;;7.30;;
45522;SDS011;31254;51.680;5.394;2024-02-14T11:04:57;14.27;;;7.40;;
45522;SDS011;31254;51.680;5.394;2024-02-14T11:07:24;12.95;;;7.70;;
45522;SDS011;31254;51.680;5.394;2024-02-14T11:10:04;12.43;;;8.20;;
45522;SDS011;31254;51.680;5.394;2024-02-14T11:12:34;12.55;;;7.47;;
45522;SDS011;31254;51.680;5.394;2024-02-14T11:15:26;14.07;;;7.22;;
45522;SDS011;31254;51.680;5.394;2024-02-14T11:18:03;15.13;;;7.80;;
45522;SDS011;31254;51.680;5.394;2024-02-14T11:20:31;11.13;;;6.55;;
45522;SDS011;31254;51.680;5.394;2024-02-14T11:25:31;9.35;;;6.60;;
45522;SDS011;31254;51.680;5.394;2024-02-14T11:28:01;10.65;;;7.13;;
45522;SDS011;31254;51.680;5.394;2024-02-14T11:30:52;10.68;;;6.93;;
45522;SDS011;31254;51.680;5.394;2024-02-14T11:33:25;11.55;;;7.35;;
45522;SDS011;31254;51.680;5.394;2024-02-14T11:35:53;11.82;;;6.80;;
45522;SDS011;31254;51.680;5.394;2024-02-14T11:38:22;9.48;;;7.13;;
45522;SDS011;31254;51.680;5.394;2024-02-14T11:40:55;12.88;;;7.20;;
45522;SDS011;31254;51.680;5.394;2024-02-14T11:43:23;9.75;;;7.22;;
45522;SDS011;31254;51.680;5.394;2024-02-14T11:45:50;11.65;;;7.43;;
45522;SDS011;31254;51.680;5.394;2024-02-14T11:48:18;8.55;;;6.65;;
45522;SDS011;31254;51.680;5.394;2024-02-14T11:50:48;10.32;;;6.95;;
45522;SDS011;31254;51.680;5.394;2024-02-14T11:53:15;10.48;;;6.22;;
45522;SDS011;31254;51.680;5.394;2024-02-14T11:55:48;11.63;;;6.78;;
45522;SDS011;31254;51.680;5.394;2024-02-14T11:58:15;9.55;;;6.47;;
45522;SDS011;31254;51.680;5.394;2024-02-14T12:00:43;10.02;;;6.45;;
45522;SDS011;31254;51.680;5.394;2024-02-14T12:03:20;8.10;;;6.28;;
45522;SDS011;31254;51.680;5.394;2024-02-14T12:05:50;8.95;;;6.43;;
45522;SDS011;31254;51.680;5.394;2024-02-14T12:08:19;10.57;;;6.85;;
45522;SDS011;31254;51.680;5.394;2024-02-14T12:10:46;7.55;;;6.18;;
45522;SDS011;31254;51.680;5.394;2024-02-14T12:13:16;7.82;;;6.05;;
45522;SDS011;31254;51.680;5.394;2024-02-14T12:15:45;8.48;;;6.53;;
45522;SDS011;31254;51.680;5.394;2024-02-14T12:18:13;11.38;;;6.90;;
45522;SDS011;31254;51.680;5.394;2024-02-14T12:20:41;7.20;;;5.93;;
45522;SDS011;31254;51.680;5.394;2024-02-14T12:23:15;7.82;;;5.65;;
45522;SDS011;31254;51.680;5.394;2024-02-14T12:25:45;8.07;;;6.53;;
45522;SDS011;31254;51.680;5.394;2024-02-14T12:28:13;7.57;;;6.20;;
45522;SDS011;31254;51.680;5.394;2024-02-14T12:30:44;8.13;;;6.47;;
45522;SDS011;31254;51.680;5.394;2024-02-14T12:33:12;9.43;;;6.13;;
45522;SDS011;31254;51.680;5.394;2024-02-14T12:35:44;7.65;;;6.15;;
45522;SDS011;31254;51.680;5.394;2024-02-14T12:38:13;8.25;;;6.22;;
45522;SDS011;31254;51.680;5.394;2024-02-14T12:40:41;9.55;;;6.30;;
45522;SDS011;31254;51.680;5.394;2024-02-14T12:43:08;7.95;;;6.43;;
45522;SDS011;31254;51.680;5.394;2024-02-14T12:45:35;8.35;;;7.00;;
45522;SDS011;31254;51.680;5.394;2024-02-14T12:48:02;7.82;;;6.60;;
45522;SDS011;31254;51.680;5.394;2024-02-14T12:50:30;8.43;;;6.45;;
45522;SDS011;31254;51.680;5.394;2024-02-14T12:52:58;9.27;;;6.22;;
45522;SDS011;31254;51.680;5.394;2024-02-14T12:55:25;9.35;;;6.47;;
45522;SDS011;31254;51.680;5.394;2024-02-14T12:57:55;7.70;;;5.93;;
45522;SDS011;31254;51.680;5.394;2024-02-14T13:00:22;8.95;;;6.35;;
45522;SDS011;31254;51.680;5.394;2024-02-14T13:02:50;8.30;;;6.80;;
45522;SDS011;31254;51.680;5.394;2024-02-14T13:05:17;8.05;;;6.55;;
45522;SDS011;31254;51.680;5.394;2024-02-14T13:07:43;10.48;;;6.45;;
45522;SDS011;31254;51.680;5.394;2024-02-14T13:10:11;8.25;;;6.55;;
45522;SDS011;31254;51.680;5.394;2024-02-14T13:12:38;8.93;;;5.95;;
45522;SDS011;31254;51.680;5.394;2024-02-14T13:15:05;11.07;;;6.10;;
45522;SDS011;31254;51.680;5.394;2024-02-14T13:17:32;7.43;;;6.22;;
45522;SDS011;31254;51.680;5.394;2024-02-14T13:19:59;8.23;;;6.10;;
45522;SDS011;31254;51.680;5.394;2024-02-14T13:22:27;8.75;;;6.22;;
45522;SDS011;31254;51.680;5.394;2024-02-14T13:24:53;8.63;;;6.45;;
45522;SDS011;31254;51.680;5.394;2024-02-14T13:27:20;8.32;;;6.15;;
45522;SDS011;31254;51.680;5.394;2024-02-14T13:29:47;10.25;;;5.70;;
45522;SDS011;31254;51.680;5.394;2024-02-14T13:32:14;10.18;;;6.00;;
45522;SDS011;31254;51.680;5.394;2024-02-14T13:34:41;6.82;;;5.50;;
45522;SDS011;31254;51.680;5.394;2024-02-14T13:37:07;6.55;;;5.60;;
45522;SDS011;31254;51.680;5.394;2024-02-14T13:39:35;8.77;;;5.93;;
45522;SDS011;31254;51.680;5.394;2024-02-14T13:42:02;7.63;;;5.40;;
45522;SDS011;31254;51.680;5.394;2024-02-14T13:44:29;8.68;;;5.95;;
45522;SDS011;31254;51.680;5.394;2024-02-14T13:46:56;7.88;;;6.00;;
45522;SDS011;31254;51.680;5.394;2024-02-14T13:49:22;6.50;;;5.43;;
45522;SDS011;31254;51.680;5.394;2024-02-14T13:51:50;7.93;;;5.93;;
45522;SDS011;31254;51.680;5.394;2024-02-14T13:54:20;7.57;;;5.40;;
45522;SDS011;31254;51.680;5.394;2024-02-14T13:56:47;7.72;;;5.35;;
45522;SDS011;31254;51.680;5.394;2024-02-14T13:59:15;6.15;;;5.05;;
45522;SDS011;31254;51.680;5.394;2024-02-14T14:01:42;30.02;;;7.25;;
45522;SDS011;31254;51.680;5.394;2024-02-14T14:04:09;15.77;;;6.47;;
45522;SDS011;31254;51.680;5.394;2024-02-14T14:06:35;29.60;;;6.63;;
45522;SDS011;31254;51.680;5.394;2024-02-14T14:09:02;24.42;;;6.63;;
45522;SDS011;31254;51.680;5.394;2024-02-14T14:11:34;33.60;;;7.47;;
45522;SDS011;31254;51.680;5.394;2024-02-14T14:14:00;100.38;;;17.88;;
45522;SDS011;31254;51.680;5.394;2024-02-14T14:16:27;62.75;;;12.65;;
45522;SDS011;31254;51.680;5.394;2024-02-14T14:18:54;85.30;;;11.50;;
45522;SDS011;31254;51.680;5.394;2024-02-14T14:21:20;147.45;;;14.73;;
45522;SDS011;31254;51.680;5.394;2024-02-14T14:23:47;81.95;;;12.00;;
45522;SDS011;31254;51.680;5.394;2024-02-14T14:26:14;45.40;;;11.20;;
45522;SDS011;31254;51.680;5.394;2024-02-14T14:28:41;67.18;;;10.15;;
45522;SDS011;31254;51.680;5.394;2024-02-14T14:31:08;56.20;;;11.95;;
45522;SDS011;31254;51.680;5.394;2024-02-14T14:33:38;69.97;;;13.57;;
45522;SDS011;31254;51.680;5.394;2024-02-14T14:36:05;39.22;;;11.55;;
45522;SDS011;31254;51.680;5.394;2024-02-14T14:38:32;43.63;;;10.15;;
45522;SDS011;31254;51.680;5.394;2024-02-14T14:40:59;34.25;;;10.30;;
45522;SDS011;31254;51.680;5.394;2024-02-14T14:43:26;47.30;;;11.50;;
45522;SDS011;31254;51.680;5.394;2024-02-14T14:45:54;44.00;;;11.10;;